sensor_id;sensor_type;location;lat;lon;timestamp;temperature;humidity
32839;DHT22;19182;41.820;12.808;2022-10-22T00:02:24;15.60;99.90
32839;DHT22;19182;41.820;12.808;2022-10-22T00:04:52;15.40;99.90
32839;DHT22;19182;41.820;12.808;2022-10-22T00:09:45;15.40;99.90
32839;DHT22;19182;41.820;12.808;2022-10-22T00:12:13;15.40;99.90
32839;DHT22;19182;41.820;12.808;2022-10-22T00:17:06;15.30;99.90
32839;DHT22;19182;41.820;12.808;2022-10-22T00:21:57;15.30;99.90
32839;DHT22;19182;41.820;12.808;2022-10-22T00:26:52;15.20;99.90
32839;DHT22;19182;41.820;12.808;2022-10-22T00:29:18;15.20;99.90
32839;DHT22;19182;41.820;12.808;2022-10-22T00:31:45;15.10;99.90
32839;DHT22;19182;41.820;12.808;2022-10-22T00:34:18;15.10;99.90
32839;DHT22;19182;41.820;12.808;2022-10-22T00:36:46;15.30;99.90
32839;DHT22;19182;41.820;12.808;2022-10-22T00:39:14;15.30;99.90
32839;DHT22;19182;41.820;12.808;2022-10-22T00:41:42;15.30;99.90
32839;DHT22;19182;41.820;12.808;2022-10-22T00:52:04;15.20;99.90
32839;DHT22;19182;41.820;12.808;2022-10-22T00:54:30;15.20;99.90
32839;DHT22;19182;41.820;12.808;2022-10-22T00:59:22;15.20;99.90
32839;DHT22;19182;41.820;12.808;2022-10-22T01:01:48;15.00;99.90
32839;DHT22;19182;41.820;12.808;2022-10-22T01:04:15;15.10;99.90
32839;DHT22;19182;41.820;12.808;2022-10-22T01:09:59;15.20;99.90
32839;DHT22;19182;41.820;12.808;2022-10-22T01:15:21;15.10;99.90
32839;DHT22;19182;41.820;12.808;2022-10-22T01:29:16;12.70;99.90
32839;DHT22;19182;41.820;12.808;2022-10-22T01:31:55;15.20;99.90
32839;DHT22;19182;41.820;12.808;2022-10-22T01:34:24;15.20;99.90
32839;DHT22;19182;41.820;12.808;2022-10-22T01:36:52;15.10;99.90
32839;DHT22;19182;41.820;12.808;2022-10-22T01:39:20;15.10;99.90
32839;DHT22;19182;41.820;12.808;2022-10-22T01:41:49;15.20;99.90
32839;DHT22;19182;41.820;12.808;2022-10-22T01:44:32;15.20;99.90
32839;DHT22;19182;41.820;12.808;2022-10-22T02:01:37;15.10;99.90
32839;DHT22;19182;41.820;12.808;2022-10-22T02:04:29;15.10;99.90
32839;DHT22;19182;41.820;12.808;2022-10-22T02:07:01;15.10;99.90
32839;DHT22;19182;41.820;12.808;2022-10-22T02:09:29;15.00;99.90
32839;DHT22;19182;41.820;12.808;2022-10-22T02:11:56;15.00;99.90
32839;DHT22;19182;41.820;12.808;2022-10-22T02:14:27;15.00;99.90
32839;DHT22;19182;41.820;12.808;2022-10-22T02:16:55;15.00;99.90
32839;DHT22;19182;41.820;12.808;2022-10-22T02:19:34;14.90;99.90
32839;DHT22;19182;41.820;12.808;2022-10-22T02:22:02;15.00;99.90
32839;DHT22;19182;41.820;12.808;2022-10-22T02:24:28;14.80;99.90
32839;DHT22;19182;41.820;12.808;2022-10-22T02:29:34;15.00;99.90
32839;DHT22;19182;41.820;12.808;2022-10-22T02:32:02;15.00;99.90
32839;DHT22;19182;41.820;12.808;2022-10-22T02:34:30;15.00;99.90
32839;DHT22;19182;41.820;12.808;2022-10-22T02:36:58;14.90;99.90
32839;DHT22;19182;41.820;12.808;2022-10-22T02:39:24;14.90;99.90
32839;DHT22;19182;41.820;12.808;2022-10-22T02:41:50;14.80;99.90
32839;DHT22;19182;41.820;12.808;2022-10-22T02:44:20;14.80;99.90
32839;DHT22;19182;41.820;12.808;2022-10-22T02:46:46;14.90;99.90
32839;DHT22;19182;41.820;12.808;2022-10-22T02:54:04;14.90;99.90
32839;DHT22;19182;41.820;12.808;2022-10-22T02:56:30;14.80;99.90
32839;DHT22;19182;41.820;12.808;2022-10-22T02:58:56;14.90;99.90
32839;DHT22;19182;41.820;12.808;2022-10-22T03:01:23;14.90;99.90
32839;DHT22;19182;41.820;12.808;2022-10-22T03:03:49;14.90;99.90
32839;DHT22;19182;41.820;12.808;2022-10-22T03:06:15;14.90;99.90
32839;DHT22;19182;41.820;12.808;2022-10-22T03:13:34;15.00;99.90
32839;DHT22;19182;41.820;12.808;2022-10-22T03:15:59;15.10;99.90
32839;DHT22;19182;41.820;12.808;2022-10-22T03:21:10;15.10;99.90
32839;DHT22;19182;41.820;12.808;2022-10-22T03:23:38;15.10;99.90
32839;DHT22;19182;41.820;12.808;2022-10-22T03:26:06;15.10;99.90
32839;DHT22;19182;41.820;12.808;2022-10-22T03:28:33;15.20;99.90
32839;DHT22;19182;41.820;12.808;2022-10-22T03:30:59;15.10;99.90
32839;DHT22;19182;41.820;12.808;2022-10-22T03:35:50;15.10;99.90
32839;DHT22;19182;41.820;12.808;2022-10-22T03:38:18;15.10;99.90
32839;DHT22;19182;41.820;12.808;2022-10-22T03:40:45;15.00;99.90
32839;DHT22;19182;41.820;12.808;2022-10-22T03:43:11;15.00;99.90
32839;DHT22;19182;41.820;12.808;2022-10-22T03:45:37;15.00;99.90
32839;DHT22;19182;41.820;12.808;2022-10-22T03:50:29;15.10;99.90
32839;DHT22;19182;41.820;12.808;2022-10-22T04:00:14;15.10;99.90
32839;DHT22;19182;41.820;12.808;2022-10-22T04:02:40;15.00;99.90
32839;DHT22;19182;41.820;12.808;2022-10-22T04:05:06;15.10;99.90
32839;DHT22;19182;41.820;12.808;2022-10-22T04:12:24;15.00;99.90
32839;DHT22;19182;41.820;12.808;2022-10-22T04:14:50;14.90;99.90
32839;DHT22;19182;41.820;12.808;2022-10-22T04:19:42;14.90;99.90
32839;DHT22;19182;41.820;12.808;2022-10-22T04:22:08;14.90;99.90
32839;DHT22;19182;41.820;12.808;2022-10-22T04:24:34;14.80;99.90
32839;DHT22;19182;41.820;12.808;2022-10-22T04:26:59;14.70;99.90
32839;DHT22;19182;41.820;12.808;2022-10-22T04:34:18;14.70;99.90
32839;DHT22;19182;41.820;12.808;2022-10-22T04:39:11;14.70;99.90
32839;DHT22;19182;41.820;12.808;2022-10-22T04:41:38;14.80;99.90
32839;DHT22;19182;41.820;12.808;2022-10-22T04:44:05;14.80;99.90
32839;DHT22;19182;41.820;12.808;2022-10-22T04:46:33;14.70;99.90
32839;DHT22;19182;41.820;12.808;2022-10-22T04:48:59;14.70;99.90
32839;DHT22;19182;41.820;12.808;2022-10-22T04:51:26;14.60;99.90
32839;DHT22;19182;41.820;12.808;2022-10-22T04:56:23;14.60;99.90
32839;DHT22;19182;41.820;12.808;2022-10-22T04:58:55;14.70;99.90
32839;DHT22;19182;41.820;12.808;2022-10-22T05:01:24;14.70;99.90
32839;DHT22;19182;41.820;12.808;2022-10-22T05:03:52;14.60;99.90
32839;DHT22;19182;41.820;12.808;2022-10-22T05:06:19;14.70;99.90
32839;DHT22;19182;41.820;12.808;2022-10-22T05:11:15;14.70;99.90
32839;DHT22;19182;41.820;12.808;2022-10-22T05:13:41;14.90;99.90
32839;DHT22;19182;41.820;12.808;2022-10-22T05:16:07;14.80;99.90
32839;DHT22;19182;41.820;12.808;2022-10-22T05:18:38;14.70;99.90
32839;DHT22;19182;41.820;12.808;2022-10-22T05:21:08;14.70;99.90
32839;DHT22;19182;41.820;12.808;2022-10-22T05:23:34;14.70;99.90
32839;DHT22;19182;41.820;12.808;2022-10-22T05:26:07;14.80;99.90
32839;DHT22;19182;41.820;12.808;2022-10-22T05:28:34;14.80;99.90
32839;DHT22;19182;41.820;12.808;2022-10-22T05:31:00;14.80;99.90
32839;DHT22;19182;41.820;12.808;2022-10-22T05:33:27;14.80;99.90
32839;DHT22;19182;41.820;12.808;2022-10-22T05:35:53;14.80;99.90
32839;DHT22;19182;41.820;12.808;2022-10-22T05:38:19;14.80;99.90
32839;DHT22;19182;41.820;12.808;2022-10-22T05:43:11;14.70;99.90
32839;DHT22;19182;41.820;12.808;2022-10-22T05:45:41;14.50;99.90
32839;DHT22;19182;41.820;12.808;2022-10-22T05:48:07;14.70;99.90
32839;DHT22;19182;41.820;12.808;2022-10-22T05:50:37;14.70;99.90
32839;DHT22;19182;41.820;12.808;2022-10-22T05:53:05;14.60;99.90
32839;DHT22;19182;41.820;12.808;2022-10-22T05:55:35;14.70;99.90
32839;DHT22;19182;41.820;12.808;2022-10-22T05:58:05;14.70;99.90
32839;DHT22;19182;41.820;12.808;2022-10-22T06:00:31;14.70;99.90
32839;DHT22;19182;41.820;12.808;2022-10-22T06:02:59;14.80;99.90
32839;DHT22;19182;41.820;12.808;2022-10-22T06:05:24;14.90;99.90
32839;DHT22;19182;41.820;12.808;2022-10-22T06:07:50;15.00;99.90
32839;DHT22;19182;41.820;12.808;2022-10-22T06:10:18;15.10;99.90
32839;DHT22;19182;41.820;12.808;2022-10-22T06:12:46;15.20;99.90
32839;DHT22;19182;41.820;12.808;2022-10-22T06:15:14;15.30;99.90
32839;DHT22;19182;41.820;12.808;2022-10-22T06:17:40;15.30;99.90
32839;DHT22;19182;41.820;12.808;2022-10-22T06:20:06;15.30;99.90
32839;DHT22;19182;41.820;12.808;2022-10-22T06:22:32;15.30;99.90
32839;DHT22;19182;41.820;12.808;2022-10-22T06:24:58;15.40;99.90
32839;DHT22;19182;41.820;12.808;2022-10-22T06:27:24;15.40;99.90
32839;DHT22;19182;41.820;12.808;2022-10-22T06:29:49;15.40;99.90
32839;DHT22;19182;41.820;12.808;2022-10-22T06:32:15;15.50;99.90
32839;DHT22;19182;41.820;12.808;2022-10-22T06:34:41;15.50;99.90
32839;DHT22;19182;41.820;12.808;2022-10-22T06:37:08;15.50;99.90
32839;DHT22;19182;41.820;12.808;2022-10-22T06:42:01;15.50;99.90
32839;DHT22;19182;41.820;12.808;2022-10-22T06:44:27;15.40;99.90
32839;DHT22;19182;41.820;12.808;2022-10-22T06:46:53;15.50;99.90
32839;DHT22;19182;41.820;12.808;2022-10-22T06:49:20;15.60;99.90
32839;DHT22;19182;41.820;12.808;2022-10-22T06:51:49;15.60;99.90
32839;DHT22;19182;41.820;12.808;2022-10-22T06:54:15;15.70;99.90
32839;DHT22;19182;41.820;12.808;2022-10-22T06:56:41;15.90;99.90
32839;DHT22;19182;41.820;12.808;2022-10-22T06:59:06;15.90;99.90
32839;DHT22;19182;41.820;12.808;2022-10-22T07:01:37;16.00;99.90
32839;DHT22;19182;41.820;12.808;2022-10-22T07:04:04;16.40;99.90
32839;DHT22;19182;41.820;12.808;2022-10-22T07:06:34;16.30;99.90
32839;DHT22;19182;41.820;12.808;2022-10-22T07:09:00;16.60;99.90
32839;DHT22;19182;41.820;12.808;2022-10-22T07:11:41;15.90;99.90
32839;DHT22;19182;41.820;12.808;2022-10-22T07:14:08;16.90;99.90
32839;DHT22;19182;41.820;12.808;2022-10-22T07:19:01;16.80;99.90
32839;DHT22;19182;41.820;12.808;2022-10-22T07:21:27;16.80;99.90
32839;DHT22;19182;41.820;12.808;2022-10-22T07:26:19;17.00;99.90
32839;DHT22;19182;41.820;12.808;2022-10-22T07:28:45;17.10;99.90
32839;DHT22;19182;41.820;12.808;2022-10-22T07:31:13;17.30;99.90
32839;DHT22;19182;41.820;12.808;2022-10-22T07:33:39;17.30;99.90
32839;DHT22;19182;41.820;12.808;2022-10-22T07:36:07;17.40;99.90
32839;DHT22;19182;41.820;12.808;2022-10-22T07:38:33;17.40;99.90
32839;DHT22;19182;41.820;12.808;2022-10-22T07:40:59;17.50;99.90
32839;DHT22;19182;41.820;12.808;2022-10-22T07:43:25;17.40;99.90
32839;DHT22;19182;41.820;12.808;2022-10-22T07:45:53;17.50;99.90
32839;DHT22;19182;41.820;12.808;2022-10-22T07:48:22;17.90;99.90
32839;DHT22;19182;41.820;12.808;2022-10-22T07:50:52;18.30;99.90
32839;DHT22;19182;41.820;12.808;2022-10-22T07:53:19;19.00;99.90
32839;DHT22;19182;41.820;12.808;2022-10-22T07:55:49;19.00;99.90
32839;DHT22;19182;41.820;12.808;2022-10-22T07:58:17;19.20;99.90
32839;DHT22;19182;41.820;12.808;2022-10-22T08:00:44;19.20;99.90
32839;DHT22;19182;41.820;12.808;2022-10-22T08:03:11;18.80;99.90
32839;DHT22;19182;41.820;12.808;2022-10-22T08:05:36;18.80;99.90
32839;DHT22;19182;41.820;12.808;2022-10-22T08:08:04;18.90;99.90
32839;DHT22;19182;41.820;12.808;2022-10-22T08:10:30;18.90;99.90
32839;DHT22;19182;41.820;12.808;2022-10-22T08:15:23;19.20;99.90
32839;DHT22;19182;41.820;12.808;2022-10-22T08:17:52;19.40;99.90
32839;DHT22;19182;41.820;12.808;2022-10-22T08:20:19;19.80;99.90
32839;DHT22;19182;41.820;12.808;2022-10-22T08:25:12;19.80;99.90
32839;DHT22;19182;41.820;12.808;2022-10-22T08:27:38;19.80;99.90
32839;DHT22;19182;41.820;12.808;2022-10-22T08:30:05;20.00;99.90
32839;DHT22;19182;41.820;12.808;2022-10-22T08:32:31;21.00;99.90
32839;DHT22;19182;41.820;12.808;2022-10-22T08:37:23;21.50;99.90
32839;DHT22;19182;41.820;12.808;2022-10-22T08:39:48;21.80;99.90
32839;DHT22;19182;41.820;12.808;2022-10-22T08:42:48;22.10;99.90
32839;DHT22;19182;41.820;12.808;2022-10-22T08:45:38;22.40;99.90
32839;DHT22;19182;41.820;12.808;2022-10-22T08:51:16;22.80;99.90
32839;DHT22;19182;41.820;12.808;2022-10-22T08:56:26;22.10;99.90
32839;DHT22;19182;41.820;12.808;2022-10-22T09:01:41;20.90;99.90
32839;DHT22;19182;41.820;12.808;2022-10-22T09:04:27;20.80;99.90
32839;DHT22;19182;41.820;12.808;2022-10-22T09:06:58;20.80;99.90
32839;DHT22;19182;41.820;12.808;2022-10-22T09:09:28;20.40;99.90
32839;DHT22;19182;41.820;12.808;2022-10-22T09:11:57;20.40;99.90
32839;DHT22;19182;41.820;12.808;2022-10-22T09:14:29;19.30;99.90
32839;DHT22;19182;41.820;12.808;2022-10-22T09:20:27;20.80;99.90
32839;DHT22;19182;41.820;12.808;2022-10-22T09:23:36;20.80;99.90
32839;DHT22;19182;41.820;12.808;2022-10-22T09:26:12;20.80;99.90
32839;DHT22;19182;41.820;12.808;2022-10-22T09:28:49;20.80;99.90
32839;DHT22;19182;41.820;12.808;2022-10-22T09:31:15;21.20;99.90
32839;DHT22;19182;41.820;12.808;2022-10-22T09:33:44;22.20;99.90
32839;DHT22;19182;41.820;12.808;2022-10-22T09:36:33;23.30;99.90
32839;DHT22;19182;41.820;12.808;2022-10-22T09:39:23;23.80;99.90
32839;DHT22;19182;41.820;12.808;2022-10-22T09:41:59;23.30;99.90
32839;DHT22;19182;41.820;12.808;2022-10-22T09:44:35;22.80;99.90
32839;DHT22;19182;41.820;12.808;2022-10-22T09:47:07;22.60;99.90
32839;DHT22;19182;41.820;12.808;2022-10-22T09:50:09;22.10;99.90
32839;DHT22;19182;41.820;12.808;2022-10-22T09:52:43;22.00;99.90
32839;DHT22;19182;41.820;12.808;2022-10-22T09:55:17;21.50;99.90
32839;DHT22;19182;41.820;12.808;2022-10-22T09:57:51;21.20;99.90
32839;DHT22;19182;41.820;12.808;2022-10-22T10:00:19;21.00;99.90
32839;DHT22;19182;41.820;12.808;2022-10-22T10:02:45;21.60;99.90
32839;DHT22;19182;41.820;12.808;2022-10-22T10:05:34;22.60;99.90
32839;DHT22;19182;41.820;12.808;2022-10-22T10:08:11;23.80;99.90
32839;DHT22;19182;41.820;12.808;2022-10-22T10:10:47;24.30;99.90
32839;DHT22;19182;41.820;12.808;2022-10-22T10:21:45;24.50;99.90
32839;DHT22;19182;41.820;12.808;2022-10-22T10:30:23;24.30;99.90
32839;DHT22;19182;41.820;12.808;2022-10-22T10:33:14;24.70;99.90
32839;DHT22;19182;41.820;12.808;2022-10-22T10:36:04;24.70;99.90
32839;DHT22;19182;41.820;12.808;2022-10-22T10:42:07;27.30;99.90
32839;DHT22;19182;41.820;12.808;2022-10-22T10:47:23;27.00;99.90
32839;DHT22;19182;41.820;12.808;2022-10-22T10:49:58;27.30;99.90
32839;DHT22;19182;41.820;12.808;2022-10-22T10:52:58;27.30;99.90
32839;DHT22;19182;41.820;12.808;2022-10-22T11:01:41;26.60;99.90
32839;DHT22;19182;41.820;12.808;2022-10-22T11:04:15;26.00;99.90
32839;DHT22;19182;41.820;12.808;2022-10-22T11:06:52;26.00;99.90
32839;DHT22;19182;41.820;12.808;2022-10-22T11:09:53;26.80;99.90
32839;DHT22;19182;41.820;12.808;2022-10-22T11:12:24;26.20;99.90
32839;DHT22;19182;41.820;12.808;2022-10-22T11:15:27;26.50;99.90
32839;DHT22;19182;41.820;12.808;2022-10-22T11:18:02;26.40;99.90
32839;DHT22;19182;41.820;12.808;2022-10-22T11:21:00;25.70;99.90
32839;DHT22;19182;41.820;12.808;2022-10-22T11:23:34;26.00;99.90
32839;DHT22;19182;41.820;12.808;2022-10-22T11:26:04;26.40;99.90
32839;DHT22;19182;41.820;12.808;2022-10-22T11:28:44;26.10;99.90
32839;DHT22;19182;41.820;12.808;2022-10-22T11:31:31;26.00;99.90
32839;DHT22;19182;41.820;12.808;2022-10-22T11:36:53;25.30;99.90
32839;DHT22;19182;41.820;12.808;2022-10-22T11:39:46;25.00;99.90
32839;DHT22;19182;41.820;12.808;2022-10-22T11:42:22;24.80;99.90
32839;DHT22;19182;41.820;12.808;2022-10-22T11:47:32;25.20;99.90
32839;DHT22;19182;41.820;12.808;2022-10-22T12:07:27;24.10;99.90
32839;DHT22;19182;41.820;12.808;2022-10-22T12:09:57;24.10;99.90
32839;DHT22;19182;41.820;12.808;2022-10-22T12:12:23;23.80;99.90
32839;DHT22;19182;41.820;12.808;2022-10-22T12:14:58;23.70;99.90
32839;DHT22;19182;41.820;12.808;2022-10-22T12:17:30;23.60;99.90
32839;DHT22;19182;41.820;12.808;2022-10-22T12:20:18;23.70;99.90
32839;DHT22;19182;41.820;12.808;2022-10-22T12:22:51;23.30;99.90
32839;DHT22;19182;41.820;12.808;2022-10-22T12:25:23;23.80;99.90
32839;DHT22;19182;41.820;12.808;2022-10-22T12:27:51;24.00;99.90
32839;DHT22;19182;41.820;12.808;2022-10-22T12:30:23;23.90;99.90
32839;DHT22;19182;41.820;12.808;2022-10-22T12:32:57;24.40;99.90
32839;DHT22;19182;41.820;12.808;2022-10-22T12:35:27;24.60;99.90
32839;DHT22;19182;41.820;12.808;2022-10-22T12:37:56;24.70;99.90
32839;DHT22;19182;41.820;12.808;2022-10-22T12:40:27;24.50;99.90
32839;DHT22;19182;41.820;12.808;2022-10-22T12:43:16;24.40;99.90
32839;DHT22;19182;41.820;12.808;2022-10-22T12:45:44;24.40;99.90
32839;DHT22;19182;41.820;12.808;2022-10-22T12:48:31;24.30;99.90
32839;DHT22;19182;41.820;12.808;2022-10-22T12:51:02;24.10;99.90
32839;DHT22;19182;41.820;12.808;2022-10-22T12:53:41;24.10;99.90
32839;DHT22;19182;41.820;12.808;2022-10-22T12:56:17;24.00;99.90
32839;DHT22;19182;41.820;12.808;2022-10-22T12:58:51;24.10;99.90
32839;DHT22;19182;41.820;12.808;2022-10-22T13:01:19;22.40;99.90
32839;DHT22;19182;41.820;12.808;2022-10-22T13:03:49;23.70;99.90
32839;DHT22;19182;41.820;12.808;2022-10-22T13:06:24;23.60;99.90
32839;DHT22;19182;41.820;12.808;2022-10-22T13:09:11;23.50;99.90
32839;DHT22;19182;41.820;12.808;2022-10-22T13:11:47;23.50;99.90
32839;DHT22;19182;41.820;12.808;2022-10-22T13:22:37;23.60;99.90
32839;DHT22;19182;41.820;12.808;2022-10-22T13:25:23;23.40;99.90
32839;DHT22;19182;41.820;12.808;2022-10-22T13:30:33;23.20;99.90
32839;DHT22;19182;41.820;12.808;2022-10-22T13:35:36;23.20;99.90
32839;DHT22;19182;41.820;12.808;2022-10-22T13:38:17;23.40;99.90
32839;DHT22;19182;41.820;12.808;2022-10-22T13:43:09;23.10;99.90
32839;DHT22;19182;41.820;12.808;2022-10-22T13:45:40;23.10;99.90
32839;DHT22;19182;41.820;12.808;2022-10-22T13:48:15;23.00;99.90
32839;DHT22;19182;41.820;12.808;2022-10-22T13:53:19;22.90;99.90
32839;DHT22;19182;41.820;12.808;2022-10-22T13:55:46;22.60;99.90
32839;DHT22;19182;41.820;12.808;2022-10-22T13:58:19;22.60;99.90
32839;DHT22;19182;41.820;12.808;2022-10-22T14:00:49;22.60;99.90
32839;DHT22;19182;41.820;12.808;2022-10-22T14:03:28;22.50;99.90
32839;DHT22;19182;41.820;12.808;2022-10-22T14:08:22;22.40;99.90
32839;DHT22;19182;41.820;12.808;2022-10-22T14:10:50;22.30;99.90
32839;DHT22;19182;41.820;12.808;2022-10-22T14:13:17;22.10;99.90
32839;DHT22;19182;41.820;12.808;2022-10-22T14:15:45;21.90;99.90
32839;DHT22;19182;41.820;12.808;2022-10-22T14:18:18;21.90;99.90
32839;DHT22;19182;41.820;12.808;2022-10-22T14:20:51;21.80;99.90
32839;DHT22;19182;41.820;12.808;2022-10-22T14:23:19;21.80;99.90
32839;DHT22;19182;41.820;12.808;2022-10-22T14:25:48;21.70;99.90
32839;DHT22;19182;41.820;12.808;2022-10-22T14:28:16;21.80;99.90
32839;DHT22;19182;41.820;12.808;2022-10-22T14:30:43;21.80;99.90
32839;DHT22;19182;41.820;12.808;2022-10-22T14:33:18;21.80;99.90
32839;DHT22;19182;41.820;12.808;2022-10-22T14:35:47;21.90;99.90
32839;DHT22;19182;41.820;12.808;2022-10-22T14:38:14;21.80;99.90
32839;DHT22;19182;41.820;12.808;2022-10-22T14:40:40;21.70;99.90
32839;DHT22;19182;41.820;12.808;2022-10-22T14:43:28;21.70;99.90
32839;DHT22;19182;41.820;12.808;2022-10-22T14:45:56;21.60;99.90
32839;DHT22;19182;41.820;12.808;2022-10-22T14:48:31;21.60;99.90
32839;DHT22;19182;41.820;12.808;2022-10-22T14:50:57;21.60;99.90
32839;DHT22;19182;41.820;12.808;2022-10-22T14:53:23;21.60;99.90
32839;DHT22;19182;41.820;12.808;2022-10-22T14:55:52;21.50;99.90
32839;DHT22;19182;41.820;12.808;2022-10-22T14:58:22;21.50;99.90
32839;DHT22;19182;41.820;12.808;2022-10-22T15:00:53;21.50;99.90
32839;DHT22;19182;41.820;12.808;2022-10-22T15:03:20;21.50;99.90
32839;DHT22;19182;41.820;12.808;2022-10-22T15:05:49;21.50;99.90
32839;DHT22;19182;41.820;12.808;2022-10-22T15:08:15;21.40;99.90
32839;DHT22;19182;41.820;12.808;2022-10-22T15:10:42;21.30;99.90
32839;DHT22;19182;41.820;12.808;2022-10-22T15:13:08;21.10;99.90
32839;DHT22;19182;41.820;12.808;2022-10-22T15:17:59;21.10;99.90
32839;DHT22;19182;41.820;12.808;2022-10-22T15:22:52;20.90;99.90
32839;DHT22;19182;41.820;12.808;2022-10-22T15:25:18;20.90;99.90
32839;DHT22;19182;41.820;12.808;2022-10-22T15:27:44;20.80;99.90
32839;DHT22;19182;41.820;12.808;2022-10-22T15:30:10;20.70;99.90
32839;DHT22;19182;41.820;12.808;2022-10-22T15:32:36;20.70;99.90
32839;DHT22;19182;41.820;12.808;2022-10-22T15:35:02;20.60;99.90
32839;DHT22;19182;41.820;12.808;2022-10-22T15:37:38;20.50;99.90
32839;DHT22;19182;41.820;12.808;2022-10-22T15:40:05;20.50;99.90
32839;DHT22;19182;41.820;12.808;2022-10-22T15:44:58;20.50;99.90
32839;DHT22;19182;41.820;12.808;2022-10-22T15:47:27;20.40;99.90
32839;DHT22;19182;41.820;12.808;2022-10-22T15:49:56;20.30;99.90
32839;DHT22;19182;41.820;12.808;2022-10-22T15:52:21;20.20;99.90
32839;DHT22;19182;41.820;12.808;2022-10-22T15:54:47;20.20;99.90
32839;DHT22;19182;41.820;12.808;2022-10-22T15:57:14;20.10;99.90
32839;DHT22;19182;41.820;12.808;2022-10-22T15:59:40;20.10;99.90
32839;DHT22;19182;41.820;12.808;2022-10-22T16:02:08;20.10;99.90
32839;DHT22;19182;41.820;12.808;2022-10-22T16:07:01;19.90;99.90
32839;DHT22;19182;41.820;12.808;2022-10-22T16:09:27;19.80;99.90
32839;DHT22;19182;41.820;12.808;2022-10-22T16:11:54;19.70;99.90
32839;DHT22;19182;41.820;12.808;2022-10-22T16:14:21;19.70;99.90
32839;DHT22;19182;41.820;12.808;2022-10-22T16:16:51;19.70;99.90
32839;DHT22;19182;41.820;12.808;2022-10-22T16:19:19;19.70;99.90
32839;DHT22;19182;41.820;12.808;2022-10-22T16:21:50;19.60;99.90
32839;DHT22;19182;41.820;12.808;2022-10-22T16:24:16;19.60;99.90
32839;DHT22;19182;41.820;12.808;2022-10-22T16:29:09;19.60;99.90
32839;DHT22;19182;41.820;12.808;2022-10-22T16:34:03;19.40;99.90
32839;DHT22;19182;41.820;12.808;2022-10-22T16:38:56;19.30;99.90
32839;DHT22;19182;41.820;12.808;2022-10-22T16:41:23;19.30;99.90
32839;DHT22;19182;41.820;12.808;2022-10-22T16:43:51;19.30;99.90
32839;DHT22;19182;41.820;12.808;2022-10-22T16:46:24;19.20;99.90
32839;DHT22;19182;41.820;12.808;2022-10-22T16:48:50;19.20;99.90
32839;DHT22;19182;41.820;12.808;2022-10-22T16:51:19;19.20;99.90
32839;DHT22;19182;41.820;12.808;2022-10-22T16:53:45;19.20;99.90
32839;DHT22;19182;41.820;12.808;2022-10-22T16:56:13;19.10;99.90
32839;DHT22;19182;41.820;12.808;2022-10-22T16:58:47;19.00;99.90
32839;DHT22;19182;41.820;12.808;2022-10-22T17:01:14;19.00;99.90
32839;DHT22;19182;41.820;12.808;2022-10-22T17:03:40;19.00;99.90
32839;DHT22;19182;41.820;12.808;2022-10-22T17:08:38;19.10;99.90
32839;DHT22;19182;41.820;12.808;2022-10-22T17:11:08;18.90;99.90
32839;DHT22;19182;41.820;12.808;2022-10-22T17:13:40;18.90;99.90
32839;DHT22;19182;41.820;12.808;2022-10-22T17:16:12;18.90;99.90
32839;DHT22;19182;41.820;12.808;2022-10-22T17:18:39;19.00;99.90
32839;DHT22;19182;41.820;12.808;2022-10-22T17:21:06;18.90;99.90
32839;DHT22;19182;41.820;12.808;2022-10-22T17:26:07;18.80;99.90
32839;DHT22;19182;41.820;12.808;2022-10-22T17:28:35;18.80;99.90
32839;DHT22;19182;41.820;12.808;2022-10-22T17:31:10;18.80;99.90
32839;DHT22;19182;41.820;12.808;2022-10-22T17:33:39;18.80;99.90
32839;DHT22;19182;41.820;12.808;2022-10-22T17:36:06;18.70;99.90
32839;DHT22;19182;41.820;12.808;2022-10-22T17:38:35;18.70;99.90
32839;DHT22;19182;41.820;12.808;2022-10-22T17:41:02;18.70;99.90
32839;DHT22;19182;41.820;12.808;2022-10-22T17:43:29;19.10;99.90
32839;DHT22;19182;41.820;12.808;2022-10-22T17:46:09;18.70;99.90
32839;DHT22;19182;41.820;12.808;2022-10-22T17:48:36;18.70;99.90
32839;DHT22;19182;41.820;12.808;2022-10-22T17:51:09;18.60;99.90
32839;DHT22;19182;41.820;12.808;2022-10-22T17:53:39;18.60;99.90
32839;DHT22;19182;41.820;12.808;2022-10-22T17:56:09;18.50;99.90
32839;DHT22;19182;41.820;12.808;2022-10-22T17:58:36;18.50;99.90
32839;DHT22;19182;41.820;12.808;2022-10-22T18:01:02;18.60;99.90
32839;DHT22;19182;41.820;12.808;2022-10-22T18:03:28;18.60;99.90
32839;DHT22;19182;41.820;12.808;2022-10-22T18:05:54;18.50;99.90
32839;DHT22;19182;41.820;12.808;2022-10-22T18:08:20;18.60;99.90
32839;DHT22;19182;41.820;12.808;2022-10-22T18:10:48;18.60;99.90
32839;DHT22;19182;41.820;12.808;2022-10-22T18:13:15;18.60;99.90
32839;DHT22;19182;41.820;12.808;2022-10-22T18:15:40;18.70;99.90
32839;DHT22;19182;41.820;12.808;2022-10-22T18:18:06;18.70;99.90
32839;DHT22;19182;41.820;12.808;2022-10-22T18:20:35;18.70;99.90
32839;DHT22;19182;41.820;12.808;2022-10-22T18:23:01;18.70;99.90
32839;DHT22;19182;41.820;12.808;2022-10-22T18:25:28;18.70;99.90
32839;DHT22;19182;41.820;12.808;2022-10-22T18:27:56;18.60;99.90
32839;DHT22;19182;41.820;12.808;2022-10-22T18:30:21;18.60;99.90
32839;DHT22;19182;41.820;12.808;2022-10-22T18:32:47;18.60;99.90
32839;DHT22;19182;41.820;12.808;2022-10-22T18:35:13;18.50;99.90
32839;DHT22;19182;41.820;12.808;2022-10-22T18:37:44;18.50;99.90
32839;DHT22;19182;41.820;12.808;2022-10-22T18:40:11;18.50;99.90
32839;DHT22;19182;41.820;12.808;2022-10-22T18:42:37;18.40;99.90
32839;DHT22;19182;41.820;12.808;2022-10-22T18:45:06;18.40;99.90
32839;DHT22;19182;41.820;12.808;2022-10-22T18:47:31;18.30;99.90
32839;DHT22;19182;41.820;12.808;2022-10-22T18:49:58;18.30;99.90
32839;DHT22;19182;41.820;12.808;2022-10-22T18:54:51;18.20;99.90
32839;DHT22;19182;41.820;12.808;2022-10-22T18:57:17;18.30;99.90
32839;DHT22;19182;41.820;12.808;2022-10-22T19:04:39;18.10;99.90
32839;DHT22;19182;41.820;12.808;2022-10-22T19:07:05;18.10;99.90
32839;DHT22;19182;41.820;12.808;2022-10-22T19:09:32;18.00;99.90
32839;DHT22;19182;41.820;12.808;2022-10-22T19:14:23;18.10;99.90
32839;DHT22;19182;41.820;12.808;2022-10-22T19:16:49;18.00;99.90
32839;DHT22;19182;41.820;12.808;2022-10-22T19:19:18;18.00;99.90
32839;DHT22;19182;41.820;12.808;2022-10-22T19:21:45;18.10;99.90
32839;DHT22;19182;41.820;12.808;2022-10-22T19:24:13;18.00;99.90